Time;durP1;ratioP1;P1;durP2;ratioP2;P2;SDS_P1;SDS_P2;PMS_P1;PMS_P2;Temp;Humidity;BMP_temperature;BMP_pressure;BME280_temperature;BME280_humidity;BME280_pressure;Samples;Min_cycle;Max_cycle;Signal;HPM_P1;HPM_P2
2023/05/21 00:02:10;;;;;;;6.53;4.60;;;14.30;99.90;;;;;;5004993;28;20038;-80
2023/05/21 00:04:40;;;;;;;5.95;4.40;;;14.20;99.90;;;;;;4990484;28;20572;-80
2023/05/21 00:07:10;;;;;;;6.25;3.95;;;14.20;99.90;;;;;;5003736;28;20048;-81
2023/05/21 00:09:37;;;;;;;5.82;4.38;;;14.20;99.90;;;;;;5012681;28;20121;-81
2023/05/21 00:12:07;;;;;;;6.05;4.40;;;14.20;99.90;;;;;;4991280;28;20098;-81
2023/05/21 00:14:33;;;;;;;7.63;4.32;;;14.20;99.90;;;;;;5029668;28;20129;-81
2023/05/21 00:16:59;;;;;;;10.43;4.22;;;14.10;99.90;;;;;;4988697;28;20129;-81
2023/05/21 00:19:25;;;;;;;5.47;4.63;;;14.10;99.90;;;;;;5030843;28;20130;-81
2023/05/21 00:21:51;;;;;;;10.30;4.65;;;14.10;99.90;;;;;;5023239;28;20045;-81
2023/05/21 00:24:17;;;;;;;5.97;4.45;;;14.10;99.90;;;;;;5004928;28;20040;-80
2023/05/21 00:26:43;;;;;;;5.70;4.63;;;14.00;99.90;;;;;;5005952;28;20391;-81
2023/05/21 00:29:09;;;;;;;7.50;5.07;;;14.00;99.90;;;;;;4968030;28;20112;-81
2023/05/21 00:31:35;;;;;;;6.10;4.03;;;14.00;99.90;;;;;;5017664;28;20049;-81
2023/05/21 00:34:00;;;;;;;6.60;5.13;;;14.00;99.90;;;;;;4975398;28;20065;-80
2023/05/21 00:36:26;;;;;;;9.98;5.00;;;14.00;99.90;;;;;;4988784;28;20041;-81
2023/05/21 00:38:52;;;;;;;9.15;5.55;;;13.90;99.90;;;;;;4954755;28;20033;-81
2023/05/21 00:41:18;;;;;;;6.35;4.95;;;13.90;99.90;;;;;;4958577;28;20470;-81
2023/05/21 00:43:43;;;;;;;7.78;4.88;;;13.80;99.90;;;;;;5002795;28;20487;-81
2023/05/21 00:46:15;;;;;;;10.18;4.90;;;13.80;99.90;;;;;;5017406;28;20042;-81
2023/05/21 00:48:42;;;;;;;6.95;4.45;;;13.70;99.90;;;;;;4998282;28;20519;-81
2023/05/21 00:51:08;;;;;;;6.22;4.75;;;13.70;99.90;;;;;;4986065;28;20104;-80
2023/05/21 00:53:34;;;;;;;7.45;4.80;;;13.70;99.90;;;;;;4994719;28;20053;-81
2023/05/21 00:56:01;;;;;;;6.95;4.60;;;13.60;99.90;;;;;;4988077;28;20054;-81
2023/05/21 00:58:32;;;;;;;7.35;4.50;;;13.60;99.90;;;;;;5008109;28;20037;-81
2023/05/21 01:01:02;;;;;;;6.68;4.70;;;13.60;99.90;;;;;;5022246;28;20048;-81
2023/05/21 01:03:29;;;;;;;5.78;4.60;;;13.60;99.90;;;;;;4985610;28;20854;-81
2023/05/21 01:05:58;;;;;;;5.05;4.55;;;13.60;99.90;;;;;;4974033;28;20049;-81
2023/05/21 01:08:27;;;;;;;9.52;4.75;;;13.60;99.90;;;;;;4994290;28;20120;-81
2023/05/21 01:10:54;;;;;;;6.85;4.88;;;13.60;99.90;;;;;;4996575;28;20502;-81
2023/05/21 01:13:22;;;;;;;7.60;4.60;;;13.60;99.90;;;;;;4987045;28;20048;-81
2023/05/21 01:15:49;;;;;;;7.95;4.72;;;13.60;99.90;;;;;;5017643;28;20033;-81
2023/05/21 01:18:15;;;;;;;5.30;4.10;;;13.60;99.90;;;;;;4973061;28;20045;-81
2023/05/21 01:20:46;;;;;;;6.57;5.10;;;13.60;99.90;;;;;;4994940;28;20038;-81
2023/05/21 01:23:17;;;;;;;9.17;4.67;;;13.60;99.90;;;;;;4987174;28;20038;-81
2023/05/21 01:25:44;;;;;;;6.55;4.65;;;13.60;99.90;;;;;;4991623;28;20041;-81
2023/05/21 01:28:10;;;;;;;7.25;5.18;;;13.50;99.90;;;;;;5006159;28;20033;-80
2023/05/21 01:30:38;;;;;;;9.32;5.32;;;13.50;99.90;;;;;;5014349;28;20045;-81
2023/05/21 01:33:11;;;;;;;8.23;4.95;;;13.50;99.90;;;;;;5019635;28;20042;-81
2023/05/21 01:35:49;;;;;;;7.63;4.80;;;13.50;99.90;;;;;;5006809;28;20410;-81
2023/05/21 01:38:36;;;;;;;6.65;4.68;;;13.50;99.90;;;;;;5007460;28;20129;-81
2023/05/21 01:41:05;;;;;;;5.93;5.07;;;13.50;99.90;;;;;;5017381;28;20038;-81
2023/05/21 01:43:33;;;;;;;8.65;5.20;;;13.40;99.90;;;;;;5004200;28;20034;-81
2023/05/21 01:46:00;;;;;;;14.10;5.80;;;13.40;99.90;;;;;;5012309;28;20057;-81
2023/05/21 01:48:28;;;;;;;7.03;5.13;;;13.40;99.90;;;;;;5007506;28;20030;-81
2023/05/21 01:51:02;;;;;;;13.30;5.10;;;13.40;99.90;;;;;;5001112;28;20038;-81
2023/05/21 01:53:28;;;;;;;8.48;5.93;;;13.40;99.90;;;;;;5008322;28;20040;-81
2023/05/21 01:55:54;;;;;;;7.55;5.25;;;13.40;99.90;;;;;;4982118;28;20058;-81
2023/05/21 01:58:21;;;;;;;8.23;5.30;;;13.40;99.90;;;;;;5015470;28;20112;-81
2023/05/21 02:00:49;;;;;;;11.80;5.20;;;13.30;99.90;;;;;;5002422;28;20491;-81
2023/05/21 02:03:17;;;;;;;6.70;5.07;;;13.30;99.90;;;;;;5007504;28;20086;-80
2023/05/21 02:05:43;;;;;;;7.70;5.30;;;13.30;99.90;;;;;;4992708;28;20037;-81
2023/05/21 02:08:09;;;;;;;8.13;4.97;;;13.30;99.90;;;;;;4989444;28;20193;-80
2023/05/21 02:10:35;;;;;;;7.88;5.10;;;13.30;99.90;;;;;;4985745;28;20165;-80
2023/05/21 02:13:01;;;;;;;6.57;5.28;;;13.30;99.90;;;;;;4990754;28;20073;-80
2023/05/21 02:15:26;;;;;;;8.48;4.93;;;13.30;99.90;;;;;;4994066;28;20219;-80
2023/05/21 02:17:52;;;;;;;8.48;5.20;;;13.30;99.90;;;;;;4984595;28;20038;-80
2023/05/21 02:20:18;;;;;;;8.35;5.45;;;13.20;99.90;;;;;;4991068;28;20037;-80
2023/05/21 02:22:46;;;;;;;7.50;5.30;;;13.30;99.90;;;;;;5002809;28;20036;-80
2023/05/21 02:25:14;;;;;;;8.18;5.32;;;13.30;99.90;;;;;;4996981;28;20033;-80
2023/05/21 02:27:41;;;;;;;8.73;6.00;;;13.30;99.90;;;;;;5006805;28;20037;-81
2023/05/21 02:30:09;;;;;;;9.55;5.57;;;13.30;99.90;;;;;;4984363;28;20487;-80
2023/05/21 02:32:35;;;;;;;9.55;5.28;;;13.30;99.90;;;;;;5013246;28;20084;-80
2023/05/21 02:35:05;;;;;;;9.25;5.63;;;13.20;99.90;;;;;;5023170;28;20045;-80
2023/05/21 02:37:34;;;;;;;9.55;5.78;;;13.20;99.90;;;;;;4980110;28;20491;-80
2023/05/21 02:40:02;;;;;;;9.13;5.82;;;13.20;99.90;;;;;;5004292;28;20147;-80
2023/05/21 02:42:28;;;;;;;8.57;5.57;;;13.20;99.90;;;;;;5023570;28;20038;-80
2023/05/21 02:44:54;;;;;;;9.63;5.97;;;13.20;99.90;;;;;;4991446;28;20032;-80
2023/05/21 02:47:21;;;;;;;10.48;5.75;;;13.20;99.90;;;;;;4962526;28;20030;-80
2023/05/21 02:49:49;;;;;;;8.02;5.22;;;13.20;99.90;;;;;;4968372;28;20029;-80
2023/05/21 02:52:17;;;;;;;8.40;6.05;;;13.20;99.90;;;;;;4998653;28;20123;-81
2023/05/21 02:54:43;;;;;;;10.32;6.47;;;13.10;99.90;;;;;;4991524;28;20116;-81
2023/05/21 02:57:10;;;;;;;8.55;6.80;;;13.10;99.90;;;;;;4988822;28;20054;-81
2023/05/21 02:59:36;;;;;;;11.13;6.25;;;13.10;99.90;;;;;;4982370;28;20092;-80
2023/05/21 03:02:02;;;;;;;8.55;5.72;;;13.10;99.90;;;;;;4986299;28;20040;-81
2023/05/21 03:04:27;;;;;;;7.82;5.80;;;13.10;99.90;;;;;;4994334;28;20084;-80
2023/05/21 03:06:54;;;;;;;8.77;5.75;;;13.10;99.90;;;;;;4975255;28;20061;-81
2023/05/21 03:09:23;;;;;;;10.02;5.93;;;13.00;99.90;;;;;;5010756;28;20038;-81
2023/05/21 03:11:49;;;;;;;13.00;6.75;;;13.10;99.90;;;;;;4994468;28;20033;-81
2023/05/21 03:14:15;;;;;;;11.52;6.97;;;13.10;99.90;;;;;;5010299;28;20048;-81
2023/05/21 03:16:42;;;;;;;10.68;6.15;;;13.00;99.90;;;;;;5009355;28;20041;-80
2023/05/21 03:19:11;;;;;;;11.90;6.30;;;13.00;99.90;;;;;;5026561;28;20080;-80
2023/05/21 03:21:37;;;;;;;11.05;6.75;;;13.00;99.90;;;;;;5024673;28;20042;-80
2023/05/21 03:24:04;;;;;;;9.00;6.55;;;13.00;99.90;;;;;;4992489;28;20406;-80
2023/05/21 03:26:30;;;;;;;9.43;6.68;;;13.00;99.90;;;;;;5006591;28;20026;-80
2023/05/21 03:28:56;;;;;;;10.88;6.82;;;13.00;99.90;;;;;;4978465;28;20037;-80
2023/05/21 03:31:24;;;;;;;12.30;7.65;;;13.00;99.90;;;;;;5026712;28;20041;-80
2023/05/21 03:33:50;;;;;;;10.20;6.35;;;13.00;99.90;;;;;;5010070;28;20073;-80
2023/05/21 03:36:16;;;;;;;12.60;6.85;;;13.00;99.90;;;;;;4994452;28;20072;-80
2023/05/21 03:38:41;;;;;;;14.18;7.75;;;13.00;99.90;;;;;;4977665;28;20487;-80
2023/05/21 03:41:09;;;;;;;13.10;6.78;;;13.00;99.90;;;;;;4993448;28;20053;-80
2023/05/21 03:43:35;;;;;;;10.18;6.65;;;12.90;99.90;;;;;;4993663;28;20045;-80
2023/05/21 03:46:00;;;;;;;12.35;7.53;;;13.00;99.90;;;;;;5011796;28;20063;-80
2023/05/21 03:48:26;;;;;;;10.80;7.07;;;12.90;99.90;;;;;;4994119;28;20402;-80
2023/05/21 03:50:52;;;;;;;11.05;6.95;;;12.90;99.90;;;;;;4993239;28;20585;-80
2023/05/21 03:53:17;;;;;;;10.98;6.60;;;13.00;99.90;;;;;;4977504;28;20562;-80
2023/05/21 03:55:43;;;;;;;11.68;6.88;;;13.00;99.90;;;;;;4977055;28;20049;-80
2023/05/21 03:58:09;;;;;;;12.40;6.72;;;13.00;99.90;;;;;;5000140;28;20049;-79
2023/05/21 04:00:39;;;;;;;8.85;6.72;;;13.00;99.90;;;;;;5000190;28;20045;-79
2023/05/21 04:03:05;;;;;;;10.90;6.60;;;13.00;99.90;;;;;;4973941;28;20038;-79
2023/05/21 04:05:32;;;;;;;12.27;6.45;;;12.90;99.90;;;;;;5014728;28;20052;-79
2023/05/21 04:07:59;;;;;;;10.27;6.43;;;12.90;99.90;;;;;;5013772;28;20042;-79
2023/05/21 04:10:25;;;;;;;10.07;6.53;;;12.90;99.90;;;;;;5013777;28;20572;-79
2023/05/21 04:12:51;;;;;;;11.15;6.88;;;12.90;99.90;;;;;;4984237;28;20053;-79
2023/05/21 04:15:20;;;;;;;8.95;6.28;;;12.90;99.90;;;;;;4972837;28;20111;-79
2023/05/21 04:17:46;;;;;;;8.27;6.22;;;12.80;99.90;;;;;;4996545;28;20125;-79
2023/05/21 04:20:12;;;;;;;8.13;6.13;;;12.80;99.90;;;;;;4998160;28;20121;-79
2023/05/21 04:22:39;;;;;;;7.38;6.15;;;12.90;99.90;;;;;;4998954;28;20041;-79
2023/05/21 04:25:05;;;;;;;10.88;6.38;;;12.80;99.90;;;;;;5025797;28;20640;-79
2023/05/21 04:27:31;;;;;;;8.85;5.80;;;12.80;99.90;;;;;;5005303;28;20479;-79
2023/05/21 04:29:57;;;;;;;9.50;5.65;;;12.80;99.90;;;;;;4990489;28;20045;-79
2023/05/21 04:32:23;;;;;;;11.32;5.85;;;12.90;99.90;;;;;;5005766;28;20048;-79
2023/05/21 04:34:48;;;;;;;8.18;5.60;;;12.80;99.90;;;;;;5007927;28;20121;-79
2023/05/21 04:37:17;;;;;;;9.93;6.20;;;12.80;99.90;;;;;;5009195;28;20038;-79
2023/05/21 04:39:43;;;;;;;8.18;5.55;;;12.90;99.90;;;;;;4999385;28;20096;-79
2023/05/21 04:42:09;;;;;;;10.52;5.80;;;12.80;99.90;;;;;;4994669;28;20042;-79
2023/05/21 04:44:37;;;;;;;9.52;5.72;;;12.90;99.90;;;;;;5002398;28;20046;-78
2023/05/21 04:47:03;;;;;;;8.45;5.47;;;12.90;99.90;;;;;;5022849;28;20045;-79
2023/05/21 04:49:28;;;;;;;11.93;5.95;;;12.90;99.90;;;;;;4988702;28;20076;-79
2023/05/21 04:51:55;;;;;;;9.40;5.78;;;12.90;99.90;;;;;;4987984;28;20038;-79
2023/05/21 04:54:21;;;;;;;9.07;6.55;;;12.90;99.90;;;;;;4989364;28;20038;-79
2023/05/21 04:56:46;;;;;;;11.70;5.90;;;12.90;99.90;;;;;;4952069;28;20115;-79
2023/05/21 04:59:13;;;;;;;9.30;5.63;;;12.90;99.90;;;;;;4985957;28;20053;-79
2023/05/21 05:01:38;;;;;;;8.10;5.55;;;12.90;99.90;;;;;;4956563;28;20089;-79
2023/05/21 05:04:04;;;;;;;8.95;6.05;;;12.90;99.90;;;;;;4994101;28;20073;-79
2023/05/21 05:06:30;;;;;;;9.68;5.70;;;12.90;99.90;;;;;;4993086;28;20042;-79
2023/05/21 05:08:56;;;;;;;10.70;6.13;;;12.90;99.90;;;;;;4983670;28;20042;-79
2023/05/21 05:11:22;;;;;;;8.65;5.57;;;12.90;99.90;;;;;;4992520;28;20395;-79
2023/05/21 05:13:47;;;;;;;10.20;5.25;;;13.00;99.90;;;;;;4980008;28;20046;-79
2023/05/21 05:16:18;;;;;;;9.82;5.35;;;13.00;99.90;;;;;;4982588;28;20041;-79
2023/05/21 05:18:43;;;;;;;10.18;5.97;;;13.00;99.90;;;;;;4970692;28;20674;-78
2023/05/21 05:21:09;;;;;;;12.65;6.25;;;13.00;99.90;;;;;;4973428;28;20566;-79
2023/05/21 05:23:35;;;;;;;10.30;5.30;;;13.00;99.90;;;;;;4970933;28;20411;-79
2023/05/21 05:26:00;;;;;;;9.15;5.38;;;13.00;99.90;;;;;;4979667;28;20030;-79
2023/05/21 05:28:26;;;;;;;11.15;5.53;;;13.00;99.90;;;;;;4962702;28;20037;-79
2023/05/21 05:30:52;;;;;;;12.30;5.60;;;13.10;99.90;;;;;;4979471;28;20515;-79
2023/05/21 05:33:18;;;;;;;9.40;5.55;;;13.10;99.90;;;;;;4985943;28;20038;-79
2023/05/21 05:35:44;;;;;;;8.65;5.35;;;13.10;99.90;;;;;;4977400;28;20041;-79
2023/05/21 05:38:09;;;;;;;8.77;5.38;;;13.10;99.90;;;;;;4972241;28;20040;-78
2023/05/21 05:40:35;;;;;;;8.95;5.45;;;13.20;99.90;;;;;;4985163;28;20042;-79
2023/05/21 05:43:01;;;;;;;12.98;5.32;;;13.20;99.90;;;;;;5001197;28;20049;-79
2023/05/21 05:45:26;;;;;;;10.43;4.78;;;13.20;99.90;;;;;;4992483;28;20453;-79
2023/05/21 05:47:52;;;;;;;9.57;5.53;;;13.20;99.90;;;;;;4982245;28;20509;-79
2023/05/21 05:50:18;;;;;;;9.60;5.10;;;13.20;99.90;;;;;;4976111;28;20038;-79
2023/05/21 05:52:43;;;;;;;10.13;5.45;;;13.20;99.90;;;;;;4989395;28;20063;-79
2023/05/21 05:55:10;;;;;;;10.82;5.05;;;13.20;99.90;;;;;;4990204;28;20120;-79
2023/05/21 05:57:37;;;;;;;10.23;5.75;;;13.30;99.90;;;;;;5004526;28;20056;-79
2023/05/21 06:00:08;;;;;;;9.35;5.10;;;13.30;99.90;;;;;;5007797;28;20052;-79
2023/05/21 06:02:33;;;;;;;8.35;4.72;;;13.30;99.90;;;;;;4984723;28;20037;-79
2023/05/21 06:04:59;;;;;;;7.47;5.07;;;13.40;99.90;;;;;;4993532;28;20041;-79
2023/05/21 06:07:25;;;;;;;9.02;4.95;;;13.40;99.90;;;;;;5004888;28;20034;-79
2023/05/21 06:09:50;;;;;;;13.57;5.07;;;13.50;99.90;;;;;;4963211;28;20042;-79
2023/05/21 06:12:16;;;;;;;10.32;4.95;;;13.50;99.90;;;;;;5000671;28;20107;-79
2023/05/21 06:14:44;;;;;;;7.75;4.22;;;13.50;99.90;;;;;;4979419;28;20061;-79
2023/05/21 06:17:10;;;;;;;8.73;4.60;;;13.60;99.90;;;;;;5011540;28;20045;-79
2023/05/21 06:19:36;;;;;;;8.35;5.18;;;13.60;99.90;;;;;;5004530;28;20081;-79
2023/05/21 06:22:02;;;;;;;7.75;4.60;;;13.60;99.90;;;;;;5004518;28;20034;-79
2023/05/21 06:24:29;;;;;;;9.02;4.60;;;13.70;99.90;;;;;;5012096;28;20037;-79
2023/05/21 06:26:54;;;;;;;6.85;4.72;;;13.70;99.90;;;;;;5010722;28;20033;-79
2023/05/21 06:29:20;;;;;;;8.57;4.18;;;13.70;99.90;;;;;;5007361;28;20033;-79
2023/05/21 06:31:46;;;;;;;9.05;4.70;;;13.80;99.90;;;;;;5004544;28;20050;-79
2023/05/21 06:34:12;;;;;;;9.93;4.80;;;13.90;99.90;;;;;;4972983;28;20037;-79
2023/05/21 06:36:38;;;;;;;5.85;4.47;;;13.90;99.90;;;;;;4991374;28;20037;-79
2023/05/21 06:39:04;;;;;;;8.88;5.30;;;13.90;99.90;;;;;;4988587;28;20060;-80
2023/05/21 06:41:29;;;;;;;8.98;4.80;;;14.00;99.90;;;;;;5002706;28;21183;-80
2023/05/21 06:43:55;;;;;;;9.00;4.15;;;14.00;99.90;;;;;;5015925;28;20033;-79
2023/05/21 06:46:21;;;;;;;8.88;4.40;;;14.10;99.90;;;;;;4995509;28;20049;-80
2023/05/21 06:48:47;;;;;;;6.05;4.97;;;14.10;99.90;;;;;;5023600;28;20044;-81
2023/05/21 06:51:12;;;;;;;9.88;5.38;;;14.20;99.90;;;;;;5012008;28;20156;-81
2023/05/21 06:53:38;;;;;;;8.95;4.68;;;14.20;99.90;;;;;;5024416;28;20123;-81
2023/05/21 06:56:05;;;;;;;10.88;4.40;;;14.20;99.90;;;;;;4977602;28;20050;-81
2023/05/21 06:58:31;;;;;;;8.88;4.47;;;14.30;99.90;;;;;;5025306;28;20045;-81
2023/05/21 07:00:57;;;;;;;10.68;4.85;;;14.30;99.90;;;;;;5012626;28;20044;-81
2023/05/21 07:03:23;;;;;;;7.30;4.68;;;14.40;99.90;;;;;;4996855;28;20092;-81
2023/05/21 07:05:49;;;;;;;8.60;4.60;;;14.40;99.90;;;;;;4992554;28;20045;-81
2023/05/21 07:08:14;;;;;;;10.40;4.53;;;14.50;99.90;;;;;;5007722;28;20751;-81
2023/05/21 07:10:41;;;;;;;9.00;4.72;;;14.50;99.90;;;;;;5001940;28;20045;-81
2023/05/21 07:13:06;;;;;;;8.35;4.65;;;14.60;99.90;;;;;;4992831;28;20145;-81
2023/05/21 07:15:32;;;;;;;7.32;4.07;;;14.60;99.90;;;;;;5009403;28;20559;-81
2023/05/21 07:17:58;;;;;;;8.93;4.75;;;14.60;99.90;;;;;;5008175;28;20104;-81
2023/05/21 07:20:23;;;;;;;7.97;4.85;;;14.70;99.90;;;;;;4994226;28;20037;-81
2023/05/21 07:22:49;;;;;;;8.95;5.30;;;14.80;99.90;;;;;;5003096;28;20430;-81
2023/05/21 07:25:15;;;;;;;7.82;4.60;;;14.80;99.90;;;;;;4988767;28;20152;-81
2023/05/21 07:27:41;;;;;;;7.25;4.53;;;15.00;99.90;;;;;;5015264;28;20041;-82
2023/05/21 07:30:08;;;;;;;14.85;5.05;;;15.00;99.90;;;;;;4988775;28;20037;-81
2023/05/21 07:32:33;;;;;;;7.63;4.57;;;15.10;99.90;;;;;;4973796;28;20041;-82
2023/05/21 07:35:02;;;;;;;10.50;4.80;;;15.10;99.90;;;;;;4998240;28;20038;-81
2023/05/21 07:37:28;;;;;;;9.88;4.88;;;15.10;99.90;;;;;;5001006;28;20038;-80
2023/05/21 07:39:56;;;;;;;9.13;4.72;;;15.20;99.90;;;;;;4990711;28;20060;-80
2023/05/21 07:42:22;;;;;;;9.02;5.18;;;15.20;99.90;;;;;;4979825;28;20121;-80
2023/05/21 07:44:48;;;;;;;7.47;4.88;;;15.30;99.90;;;;;;4990059;28;20118;-82
2023/05/21 07:47:13;;;;;;;9.60;4.90;;;15.30;99.90;;;;;;5007477;28;20034;-82
2023/05/21 07:49:39;;;;;;;7.30;4.80;;;15.30;99.90;;;;;;4978216;28;20120;-81
2023/05/21 07:52:05;;;;;;;14.02;5.78;;;15.50;99.90;;;;;;4994526;28;20519;-82
2023/05/21 07:54:31;;;;;;;9.02;4.97;;;15.70;99.90;;;;;;4993126;28;20083;-80
2023/05/21 07:56:57;;;;;;;8.45;4.70;;;15.70;99.90;;;;;;5002070;28;20364;-81
2023/05/21 07:59:23;;;;;;;8.35;5.55;;;15.90;99.90;;;;;;5005407;28;20042;-81
2023/05/21 08:01:49;;;;;;;9.68;5.22;;;15.90;99.90;;;;;;4978040;28;20104;-80
2023/05/21 08:04:15;;;;;;;10.93;5.53;;;15.90;99.90;;;;;;4994336;28;20038;-81
2023/05/21 08:06:41;;;;;;;7.00;4.80;;;16.00;99.90;;;;;;4955743;28;20033;-82
2023/05/21 08:09:07;;;;;;;9.60;5.05;;;16.10;99.90;;;;;;4986541;28;20037;-81
2023/05/21 08:11:32;;;;;;;7.63;4.68;;;16.10;99.90;;;;;;4992265;28;20034;-82
2023/05/21 08:13:58;;;;;;;7.05;4.55;;;16.20;99.90;;;;;;4995992;28;20483;-80
2023/05/21 08:16:24;;;;;;;10.30;5.05;;;16.30;99.90;;;;;;4993670;28;20100;-80
2023/05/21 08:18:50;;;;;;;10.15;5.28;;;16.30;99.90;;;;;;4971095;28;20050;-80
2023/05/21 08:21:16;;;;;;;7.80;4.90;;;16.40;99.90;;;;;;4970765;28;20120;-81
2023/05/21 08:23:42;;;;;;;11.68;5.47;;;16.50;99.90;;;;;;4971310;28;20540;-81
2023/05/21 08:26:08;;;;;;;8.95;5.35;;;16.60;99.90;;;;;;4969184;28;20049;-79
2023/05/21 08:28:37;;;;;;;10.45;4.90;;;16.80;99.90;;;;;;5010045;28;20058;-80
2023/05/21 08:31:03;;;;;;;7.32;4.88;;;16.90;99.90;;;;;;4988847;28;20399;-80
2023/05/21 08:33:29;;;;;;;8.90;4.85;;;17.00;99.90;;;;;;5003899;28;20042;-80
2023/05/21 08:35:55;;;;;;;7.68;4.80;;;17.30;99.90;;;;;;4985793;28;20100;-79
2023/05/21 08:38:20;;;;;;;7.97;5.00;;;17.40;99.90;;;;;;4983737;28;20217;-79
2023/05/21 08:40:46;;;;;;;7.47;5.18;;;17.50;99.90;;;;;;4944338;28;20105;-80
2023/05/21 08:43:15;;;;;;;7.97;4.90;;;17.80;99.90;;;;;;4984504;28;20567;-79
2023/05/21 08:45:44;;;;;;;6.78;4.60;;;17.90;99.90;;;;;;4967519;28;20038;-80
2023/05/21 08:48:11;;;;;;;7.78;4.55;;;18.10;99.90;;;;;;5003425;28;20034;-80
2023/05/21 08:50:37;;;;;;;8.45;5.38;;;18.20;99.90;;;;;;4994777;28;20046;-79
2023/05/21 08:53:02;;;;;;;9.23;5.00;;;18.40;99.90;;;;;;5009758;28;20723;-79
2023/05/21 08:55:29;;;;;;;7.57;5.30;;;18.80;99.90;;;;;;4985635;28;20053;-79
2023/05/21 08:57:55;;;;;;;8.60;5.57;;;19.00;99.90;;;;;;5007361;28;20081;-79
2023/05/21 09:00:21;;;;;;;8.93;5.07;;;19.00;99.90;;;;;;5010080;28;20076;-79
2023/05/21 09:02:47;;;;;;;8.73;5.43;;;19.10;99.90;;;;;;5014304;28;20044;-79
2023/05/21 09:05:14;;;;;;;8.20;5.28;;;19.20;99.90;;;;;;4993217;28;20535;-78
2023/05/21 09:07:54;;;;;;;8.32;5.07;;;19.30;99.90;;;;;;4956321;28;20039;-78
2023/05/21 09:10:25;;;;;;;7.80;5.60;;;19.40;99.90;;;;;;4990281;28;20041;-78
2023/05/21 09:12:51;;;;;;;7.15;5.18;;;19.50;99.90;;;;;;5008626;28;20096;-78
2023/05/21 09:15:17;;;;;;;9.32;5.72;;;19.60;99.90;;;;;;4970678;28;20455;-78
2023/05/21 09:17:47;;;;;;;14.55;6.28;;;19.50;99.90;;;;;;4992654;28;20056;-78
2023/05/21 09:20:14;;;;;;;13.88;6.60;;;19.50;99.90;;;;;;4994458;28;20467;-78
2023/05/21 09:22:42;;;;;;;8.77;6.13;;;19.50;99.90;;;;;;5004686;28;20034;-78
2023/05/21 09:25:09;;;;;;;15.52;6.45;;;19.40;99.90;;;;;;5003764;28;20101;-78
2023/05/21 09:27:35;;;;;;;9.25;5.60;;;19.50;99.90;;;;;;4995360;28;20048;-78
2023/05/21 09:30:02;;;;;;;11.95;6.10;;;19.60;99.90;;;;;;5012135;28;20041;-78
2023/05/21 09:32:28;;;;;;;9.25;5.65;;;19.40;99.90;;;;;;4994105;28;20045;-78
2023/05/21 09:34:54;;;;;;;10.25;6.40;;;19.50;99.90;;;;;;4999205;28;20044;-78
2023/05/21 09:37:21;;;;;;;8.90;6.40;;;19.30;99.90;;;;;;4989546;28;20045;-78
2023/05/21 09:39:47;;;;;;;8.98;6.47;;;19.30;99.90;;;;;;4932360;28;20128;-78
2023/05/21 09:42:13;;;;;;;11.63;5.97;;;19.20;99.90;;;;;;4980868;28;20068;-80
2023/05/21 09:44:42;;;;;;;10.38;6.38;;;19.20;99.90;;;;;;5006908;28;20046;-78
2023/05/21 09:47:11;;;;;;;9.65;6.85;;;19.10;99.90;;;;;;4962172;28;20035;-78
2023/05/21 09:49:37;;;;;;;8.70;5.55;;;19.10;99.90;;;;;;4991068;28;20038;-78
2023/05/21 09:52:03;;;;;;;9.32;6.75;;;19.10;99.90;;;;;;4998458;28;20048;-78
2023/05/21 09:54:33;;;;;;;7.88;6.47;;;19.20;99.90;;;;;;4968708;28;20065;-78
2023/05/21 09:57:02;;;;;;;10.13;6.93;;;19.20;99.90;;;;;;5011766;28;20064;-78
2023/05/21 09:59:38;;;;;;;13.73;7.85;;;19.20;99.90;;;;;;5029930;28;20502;-78
2023/05/21 10:02:19;;;;;;;8.93;6.60;;;19.30;99.90;;;;;;4985695;28;20135;-78
2023/05/21 10:04:48;;;;;;;10.77;7.35;;;19.20;99.90;;;;;;4994488;28;20045;-77
2023/05/21 10:07:24;;;;;;;11.25;7.63;;;19.40;99.90;;;;;;4981839;28;20038;-78
2023/05/21 10:09:56;;;;;;;11.82;7.80;;;19.40;99.90;;;;;;4965992;28;20038;-78
2023/05/21 10:12:24;;;;;;;13.50;7.57;;;19.40;99.90;;;;;;4973793;28;20039;-77
2023/05/21 10:14:56;;;;;;;9.20;6.90;;;19.60;99.90;;;;;;5022801;28;20068;-77
2023/05/21 10:17:22;;;;;;;;;;;19.70;99.90;;;;;;5012623;28;20072;-78
2023/05/21 10:19:48;;;;;;;15.57;8.48;;;19.80;99.90;;;;;;5028401;28;20409;-77
2023/05/21 10:22:15;;;;;;;12.55;7.95;;;19.80;99.90;;;;;;4992210;28;20051;-77
2023/05/21 10:24:43;;;;;;;11.90;7.20;;;19.90;99.90;;;;;;4959770;28;20041;-77
2023/05/21 10:27:10;;;;;;;10.38;7.72;;;20.10;99.90;;;;;;4959636;28;20034;-78
2023/05/21 10:29:37;;;;;;;9.90;7.38;;;20.30;99.90;;;;;;4979530;28;20411;-78
2023/05/21 10:32:04;;;;;;;10.00;8.68;;;20.30;99.90;;;;;;4995779;28;20104;-78
2023/05/21 10:34:31;;;;;;;10.15;8.20;;;20.40;99.90;;;;;;4990769;28;20038;-78
2023/05/21 10:37:00;;;;;;;11.82;8.55;;;20.60;99.90;;;;;;4973619;28;20510;-77
2023/05/21 10:39:26;;;;;;;12.48;8.35;;;20.70;99.90;;;;;;4993954;28;20073;-78
2023/05/21 10:42:11;;;;;;;15.23;8.68;;;21.00;99.90;;;;;;4984137;28;20096;-77
2023/05/21 10:45:11;;;;;;;12.23;8.80;;;21.10;99.90;;;;;;4975167;28;20046;-77
2023/05/21 10:48:19;;;;;;;12.13;9.23;;;21.10;99.90;;;;;;5014107;28;20503;-76
2023/05/21 10:51:00;;;;;;;13.60;9.57;;;21.30;99.90;;;;;;4936943;28;20705;-76
2023/05/21 10:53:50;;;;;;;13.73;10.18;;;21.20;99.90;;;;;;4984024;28;20053;-78
2023/05/21 10:56:23;;;;;;;12.77;9.90;;;21.20;99.90;;;;;;5000039;28;20068;-70
2023/05/21 10:59:14;;;;;;;12.90;9.60;;;21.40;99.90;;;;;;5012125;28;20045;-71
2023/05/21 11:01:40;;;;;;;11.57;9.45;;;21.60;99.90;;;;;;5008407;28;20514;-71
2023/05/21 11:04:06;;;;;;;16.70;11.13;;;21.60;99.90;;;;;;5007165;28;20045;-68
2023/05/21 11:06:32;;;;;;;15.20;9.80;;;21.70;99.90;;;;;;5006627;28;20049;-68
2023/05/21 11:09:16;;;;;;;16.15;11.75;;;21.90;99.90;;;;;;5020071;28;20116;-69
2023/05/21 11:11:43;;;;;;;17.42;12.07;;;22.10;99.90;;;;;;5026157;28;20643;-68
2023/05/21 11:14:35;;;;;;;17.45;10.98;;;22.10;99.90;;;;;;5015947;28;20067;-66
2023/05/21 11:17:01;;;;;;;16.93;12.37;;;22.10;99.90;;;;;;4982959;28;20073;-66
2023/05/21 11:19:37;;;;;;;16.80;12.20;;;22.20;99.90;;;;;;5020380;28;20459;-67
2023/05/21 11:22:25;;;;;;;18.48;12.85;;;22.00;99.90;;;;;;5024199;28;20064;-66
2023/05/21 11:24:53;;;;;;;14.57;11.55;;;22.10;99.90;;;;;;5001709;28;20041;-66
2023/05/21 11:27:39;;;;;;;18.38;12.43;;;22.30;99.90;;;;;;5010390;28;20471;-67
2023/05/21 11:30:09;;;;;;;16.20;12.68;;;22.40;99.90;;;;;;5028272;28;20121;-68
2023/05/21 11:32:39;;;;;;;33.13;14.60;;;22.50;99.90;;;;;;4976421;28;20124;-70
2023/05/21 11:35:06;;;;;;;18.05;13.02;;;22.60;99.90;;;;;;5005708;28;20552;-69
2023/05/21 11:37:33;;;;;;;18.10;12.45;;;22.80;99.90;;;;;;5007018;28;20080;-72
2023/05/21 11:40:29;;;;;;;15.30;12.50;;;22.90;99.90;;;;;;5022900;28;20086;-73
2023/05/21 11:42:55;;;;;;;19.92;14.18;;;23.00;99.90;;;;;;5030221;28;20037;-71
2023/05/21 11:45:28;;;;;;;19.30;13.23;;;23.10;99.90;;;;;;5007111;28;20382;-69
2023/05/21 11:47:54;;;;;;;;;;;23.20;99.90;;;;;;5002680;28;20099;-69
2023/05/21 11:50:20;;;;;;;19.50;13.63;;;23.30;99.90;;;;;;4997188;28;19918;-70
2023/05/21 11:52:47;;;;;;;16.05;12.02;;;23.50;99.90;;;;;;5002307;28;20040;-70
2023/05/21 11:55:14;;;;;;;18.48;13.60;;;23.50;99.90;;;;;;5011276;28;20037;-71
2023/05/21 11:57:43;;;;;;;16.65;12.95;;;23.50;99.90;;;;;;5005011;28;20130;-69
2023/05/21 12:00:14;;;;;;;17.08;13.18;;;23.50;99.90;;;;;;5010370;28;20103;-70
2023/05/21 12:02:45;;;;;;;18.13;14.05;;;23.50;99.00;;;;;;5001890;28;20041;-69
2023/05/21 12:05:11;;;;;;;17.38;13.57;;;23.60;99.10;;;;;;4975094;28;20588;-70
2023/05/21 12:07:37;;;;;;;17.23;13.05;;;23.70;99.40;;;;;;4976391;28;20044;-73
2023/05/21 12:10:03;;;;;;;19.90;14.20;;;23.70;99.60;;;;;;5008048;28;20052;-71
2023/05/21 12:12:31;;;;;;;18.58;14.80;;;23.80;99.40;;;;;;5008159;28;20095;-72
2023/05/21 12:14:57;;;;;;;18.85;13.38;;;23.90;99.00;;;;;;4992029;28;20045;-73
2023/05/21 12:17:24;;;;;;;18.52;12.98;;;23.90;99.00;;;;;;5022873;28;20048;-73
2023/05/21 12:19:52;;;;;;;18.85;13.63;;;24.00;98.80;;;;;;4979352;28;20045;-72
2023/05/21 12:22:19;;;;;;;19.27;13.98;;;24.10;99.00;;;;;;4995821;28;20117;-71
2023/05/21 12:24:44;;;;;;;17.65;13.82;;;24.30;98.80;;;;;;4989265;28;20402;-72
2023/05/21 12:27:12;;;;;;;17.77;13.77;;;24.10;98.90;;;;;;5008792;28;20030;-70
2023/05/21 12:29:42;;;;;;;19.38;13.55;;;24.20;99.10;;;;;;4987664;28;20033;-70
2023/05/21 12:32:13;;;;;;;19.10;14.43;;;24.10;98.20;;;;;;4990086;28;20037;-70
2023/05/21 12:34:44;;;;;;;18.88;13.70;;;24.30;98.90;;;;;;5007070;28;20052;-84
2023/05/21 12:37:15;;;;;;;27.20;14.85;;;24.40;98.60;;;;;;5007445;28;20055;-83
2023/05/21 12:39:46;;;;;;;20.58;15.07;;;24.40;98.10;;;;;;4991703;28;20203;-83
2023/05/21 12:42:13;;;;;;;20.13;15.40;;;24.50;98.10;;;;;;5007550;28;20542;-84
2023/05/21 12:44:48;;;;;;;17.30;14.13;;;24.30;98.00;;;;;;5007354;28;20067;-72